createdAt,value
2022-08-27T00:01:25.565Z,11.43
2022-08-27T00:03:56.582Z,21.10
2022-08-27T00:06:25.418Z,14.18
2022-08-27T00:08:53.687Z,13.18
2022-08-27T00:11:22.396Z,11.93
2022-08-27T00:13:50.316Z,6.03
2022-08-27T00:16:17.959Z,10.40
2022-08-27T00:18:48.417Z,11.65
2022-08-27T00:21:17.786Z,11.37
2022-08-27T00:23:45.321Z,13.98
2022-08-27T00:26:15.035Z,11.93
2022-08-27T00:28:43.308Z,14.10
2022-08-27T00:31:12.334Z,16.45
2022-08-27T00:33:41.518Z,12.10
2022-08-27T00:36:08.840Z,7.63
2022-08-27T00:38:38.573Z,17.75
2022-08-27T00:41:08.835Z,9.93
2022-08-27T00:43:56.130Z,15.05
2022-08-27T00:46:44.814Z,11.38
2022-08-27T00:49:21.333Z,18.80
2022-08-27T00:51:57.754Z,15.85
2022-08-27T00:54:26.532Z,10.82
2022-08-27T00:56:54.894Z,16.23
2022-08-27T00:59:25.427Z,11.88
2022-08-27T01:02:12.930Z,6.55
2022-08-27T01:04:42.854Z,15.77
2022-08-27T01:07:12.124Z,12.88
2022-08-27T01:09:39.584Z,12.00
2022-08-27T01:12:08.104Z,8.02
2022-08-27T01:14:39.458Z,19.45
2022-08-27T01:17:09.434Z,25.25
2022-08-27T01:19:42.918Z,14.95
2022-08-27T01:22:42.489Z,12.10
2022-08-27T01:25:16.260Z,15.10
2022-08-27T01:27:45.829Z,10.85
2022-08-27T01:30:15.986Z,12.90
2022-08-27T01:32:44.224Z,17.50
2022-08-27T01:35:14.586Z,10.82
2022-08-27T01:37:44.626Z,6.65
2022-08-27T01:40:13.383Z,10.43
2022-08-27T01:42:44.673Z,14.40
2022-08-27T01:45:20.317Z,20.95
2022-08-27T01:47:48.059Z,10.90
2022-08-27T01:50:19.510Z,15.80
2022-08-27T01:52:46.984Z,16.98
2022-08-27T01:55:17.420Z,9.77
2022-08-27T01:57:45.683Z,11.43
2022-08-27T02:00:25.111Z,10.85
2022-08-27T02:02:52.372Z,13.60
2022-08-27T02:05:19.787Z,12.23
2022-08-27T02:07:47.418Z,15.85
2022-08-27T02:10:18.173Z,13.93
2022-08-27T02:12:46.186Z,9.40
2022-08-27T02:15:15.427Z,10.48
2022-08-27T02:17:42.995Z,19.27
2022-08-27T02:20:11.224Z,11.65
2022-08-27T02:22:39.003Z,12.02
2022-08-27T02:25:10.304Z,15.77
2022-08-27T02:27:42.952Z,17.25
2022-08-27T02:30:13.724Z,18.25
2022-08-27T02:32:41.183Z,15.30
2022-08-27T02:35:09.265Z,13.25
2022-08-27T02:37:38.010Z,9.70
2022-08-27T02:40:07.667Z,13.75
2022-08-27T02:42:35.217Z,12.30
2022-08-27T02:45:02.722Z,17.85
2022-08-27T02:47:30.530Z,10.10
2022-08-27T02:49:57.808Z,22.42
2022-08-27T02:52:27.272Z,11.60
2022-08-27T02:54:54.502Z,12.43
2022-08-27T02:57:22.554Z,18.98
2022-08-27T02:59:51.257Z,13.32
2022-08-27T03:02:19.330Z,14.43
2022-08-27T03:04:46.988Z,11.77
2022-08-27T03:07:19.067Z,10.63
2022-08-27T03:09:46.405Z,17.13
2022-08-27T03:12:13.804Z,9.35
2022-08-27T03:14:40.886Z,13.00
2022-08-27T03:17:26.958Z,14.07
2022-08-27T03:19:55.640Z,11.77
2022-08-27T03:22:22.862Z,12.57
2022-08-27T03:24:50.376Z,9.85
2022-08-27T03:27:17.546Z,10.38
2022-08-27T03:29:44.718Z,11.55
2022-08-27T03:32:12.078Z,13.48
2022-08-27T03:34:39.257Z,12.77
2022-08-27T03:37:06.722Z,10.10
2022-08-27T03:39:34.017Z,18.92
2022-08-27T03:42:01.377Z,12.43
2022-08-27T03:44:28.656Z,14.07
2022-08-27T03:46:56.099Z,14.68
2022-08-27T03:49:24.325Z,13.35
2022-08-27T03:51:53.138Z,14.50
2022-08-27T03:54:20.760Z,15.50
2022-08-27T03:56:48.280Z,13.38
2022-08-27T03:59:16.135Z,7.43
2022-08-27T04:01:44.866Z,16.95
2022-08-27T04:04:13.279Z,12.82
2022-08-27T04:06:41.500Z,18.38
2022-08-27T04:09:08.961Z,15.20
2022-08-27T04:11:36.670Z,24.83
2022-08-27T04:14:14.524Z,31.33
2022-08-27T04:16:55.004Z,20.17
2022-08-27T04:19:26.865Z,17.25
2022-08-27T04:22:02.481Z,16.05
2022-08-27T04:24:32.356Z,17.75
2022-08-27T04:27:01.706Z,17.27
2022-08-27T04:29:29.820Z,16.23
2022-08-27T04:31:57.847Z,16.52
2022-08-27T04:34:25.166Z,19.00
2022-08-27T04:36:57.049Z,17.25
2022-08-27T04:39:25.704Z,21.77
2022-08-27T04:41:56.336Z,17.02
2022-08-27T04:44:25.586Z,25.90
2022-08-27T04:46:57.642Z,21.88
2022-08-27T04:49:27.067Z,18.35
2022-08-27T04:51:54.961Z,15.68
2022-08-27T04:54:32.183Z,12.93
2022-08-27T04:57:00.088Z,21.73
2022-08-27T04:59:27.310Z,17.08
2022-08-27T05:01:54.605Z,13.32
2022-08-27T05:04:22.255Z,17.08
2022-08-27T05:06:50.773Z,12.35
2022-08-27T05:09:22.141Z,19.73
2022-08-27T05:11:54.070Z,24.30
2022-08-27T05:14:22.389Z,16.63
2022-08-27T05:16:50.006Z,25.20
2022-08-27T05:19:17.465Z,28.40
2022-08-27T05:21:47.960Z,25.88
2022-08-27T05:24:16.513Z,25.90
2022-08-27T05:26:44.704Z,23.88
2022-08-27T05:31:43.481Z,23.13
2022-08-27T05:34:18.923Z,20.13
2022-08-27T05:36:53.142Z,17.42
2022-08-27T05:39:20.497Z,22.95
2022-08-27T05:41:47.573Z,22.58
2022-08-27T05:44:40.080Z,28.30
2022-08-27T05:47:04.315Z,13.98
2022-08-27T05:49:31.867Z,18.10
2022-08-27T05:52:00.077Z,16.23
2022-08-27T05:54:27.983Z,19.05
2022-08-27T05:56:55.101Z,13.90
2022-08-27T05:59:44.427Z,21.42
2022-08-27T06:02:12.702Z,14.90
2022-08-27T06:04:39.995Z,23.88
2022-08-27T06:07:09.427Z,9.88
2022-08-27T06:09:38.707Z,19.42
2022-08-27T06:12:06.349Z,16.90
2022-08-27T06:14:35.247Z,17.27
2022-08-27T06:17:03.127Z,24.38
2022-08-27T06:19:30.368Z,24.05
2022-08-27T06:22:09.910Z,26.00
2022-08-27T06:24:42.527Z,17.48
2022-08-27T06:27:17.034Z,26.73
2022-08-27T06:29:45.217Z,17.80
2022-08-27T06:32:14.769Z,17.58
2022-08-27T06:34:42.104Z,26.98
2022-08-27T06:37:09.506Z,15.35
2022-08-27T06:39:39.432Z,16.17
2022-08-27T06:42:12.190Z,24.63
2022-08-27T06:44:40.268Z,21.95
2022-08-27T06:47:07.535Z,9.80
2022-08-27T06:49:34.773Z,17.92
2022-08-27T06:52:02.866Z,24.48
2022-08-27T06:54:34.022Z,25.58
2022-08-27T06:57:01.409Z,10.68
2022-08-27T06:59:28.631Z,18.65
2022-08-27T07:01:56.348Z,9.98
2022-08-27T07:04:32.034Z,11.60
2022-08-27T07:07:02.349Z,9.25
2022-08-27T07:09:32.225Z,7.43
2022-08-27T07:12:00.181Z,18.92
2022-08-27T07:14:28.226Z,14.80
2022-08-27T07:16:55.699Z,14.75
2022-08-27T07:19:23.253Z,16.73
2022-08-27T07:21:50.955Z,24.90
2022-08-27T07:24:19.233Z,16.15
2022-08-27T07:26:46.922Z,26.25
2022-08-27T07:29:15.529Z,14.27
2022-08-27T07:31:43.826Z,17.95
2022-08-27T07:34:11.707Z,21.60
2022-08-27T07:36:39.627Z,13.50
2022-08-27T07:39:08.054Z,14.48
2022-08-27T07:41:59.064Z,21.98
2022-08-27T07:44:30.951Z,18.70
2022-08-27T07:47:02.534Z,10.07
2022-08-27T07:49:31.895Z,28.00
2022-08-27T07:51:59.596Z,21.48
2022-08-27T07:54:26.756Z,19.55
2022-08-27T07:56:56.118Z,45.15
2022-08-27T07:59:26.053Z,16.75
2022-08-27T08:01:55.294Z,19.55
2022-08-27T08:04:23.092Z,27.42
2022-08-27T08:06:51.389Z,26.65
2022-08-27T08:09:19.120Z,14.02
2022-08-27T08:11:46.705Z,12.82
2022-08-27T08:14:14.189Z,16.42
2022-08-27T08:16:41.639Z,18.23
2022-08-27T08:19:09.419Z,22.85
2022-08-27T08:21:38.597Z,17.00
2022-08-27T08:24:06.423Z,30.45
2022-08-27T08:26:34.250Z,19.08
2022-08-27T08:29:04.963Z,15.52
2022-08-27T08:31:32.561Z,24.65
2022-08-27T08:33:59.814Z,18.42
2022-08-27T08:36:27.209Z,16.90
2022-08-27T08:38:55.067Z,18.35
2022-08-27T08:41:28.389Z,15.98
2022-08-27T08:44:05.337Z,15.55
2022-08-27T08:47:12.560Z,19.15
2022-08-27T08:50:10.925Z,24.02
2022-08-27T08:52:55.785Z,19.52
2022-08-27T08:55:32.495Z,26.02
2022-08-27T08:58:37.478Z,21.38
2022-08-27T09:01:08.334Z,29.92
2022-08-27T09:03:42.275Z,20.00
2022-08-27T09:06:32.644Z,27.15
2022-08-27T09:09:09.417Z,16.60
2022-08-27T09:11:51.192Z,19.33
2022-08-27T09:14:34.388Z,24.00
2022-08-27T09:17:02.914Z,20.15
2022-08-27T09:19:38.391Z,19.38
2022-08-27T09:22:21.237Z,19.88
2022-08-27T09:25:00.586Z,21.88
2022-08-27T09:27:28.435Z,13.98
2022-08-27T09:29:56.946Z,32.83
2022-08-27T09:32:32.979Z,22.33
2022-08-27T09:35:03.574Z,23.27
2022-08-27T09:37:42.009Z,28.13
2022-08-27T09:40:23.030Z,26.30
2022-08-27T09:42:53.537Z,22.70
2022-08-27T09:45:24.874Z,24.60
2022-08-27T09:48:07.659Z,20.33
2022-08-27T09:50:43.909Z,12.52
2022-08-27T09:53:27.296Z,18.17
2022-08-27T09:55:57.887Z,24.70
2022-08-27T09:58:33.351Z,25.00
2022-08-27T10:01:03.658Z,24.33
2022-08-27T10:03:33.587Z,25.88
2022-08-27T10:06:01.477Z,33.58
2022-08-27T10:08:49.417Z,16.65
2022-08-27T10:11:22.593Z,28.88
2022-08-27T10:14:17.990Z,22.40
2022-08-27T10:17:07.085Z,24.17
2022-08-27T10:20:01.363Z,25.40
2022-08-27T10:22:33.669Z,27.73
2022-08-27T10:25:13.434Z,28.30
2022-08-27T10:28:39.331Z,28.05
2022-08-27T10:31:18.971Z,35.17
2022-08-27T10:33:49.570Z,22.85
2022-08-27T10:39:05.335Z,34.95
2022-08-27T10:41:40.251Z,22.88
2022-08-27T10:44:46.351Z,36.05
2022-08-27T10:47:28.403Z,24.33
2022-08-27T10:50:17.696Z,30.40
2022-08-27T10:53:01.860Z,32.05
2022-08-27T10:55:52.415Z,27.88
2022-08-27T10:58:39.879Z,37.88
2022-08-27T11:01:13.166Z,33.35
2022-08-27T11:03:44.226Z,25.35
2022-08-27T11:06:45.326Z,25.38
2022-08-27T11:12:13.798Z,32.15
2022-08-27T11:14:53.106Z,30.70
2022-08-27T11:17:45.926Z,43.28
2022-08-27T11:20:22.263Z,29.02
2022-08-27T11:23:18.569Z,35.50
2022-08-27T11:26:02.262Z,36.17
2022-08-27T11:28:41.771Z,41.28
2022-08-27T11:31:33.107Z,26.65
2022-08-27T11:34:25.719Z,36.42
2022-08-27T11:37:21.958Z,32.10
2022-08-27T11:39:57.708Z,38.40
2022-08-27T11:42:48.370Z,38.53
2022-08-27T11:45:24.621Z,50.30
2022-08-27T11:47:58.838Z,34.53
2022-08-27T11:50:27.752Z,43.22
2022-08-27T11:53:08.541Z,31.88
2022-08-27T11:55:38.791Z,17.80
2022-08-27T11:58:27.057Z,29.37
2022-08-27T12:00:55.062Z,34.95
2022-08-27T12:03:22.376Z,29.90
2022-08-27T12:06:09.727Z,21.58
2022-08-27T12:08:38.543Z,35.83
2022-08-27T12:11:21.519Z,40.90
2022-08-27T12:13:51.754Z,31.27
2022-08-27T12:16:38.476Z,24.67
2022-08-27T12:19:15.979Z,28.08
2022-08-27T12:22:06.579Z,34.70
2022-08-27T12:24:56.059Z,44.83
2022-08-27T12:27:32.425Z,44.42
2022-08-27T12:30:20.386Z,26.67
2022-08-27T12:32:53.578Z,30.58
2022-08-27T12:35:26.706Z,37.20
2022-08-27T12:38:05.035Z,32.95
2022-08-27T12:40:42.422Z,48.30
2022-08-27T12:43:25.464Z,35.33
2022-08-27T12:46:14.546Z,36.70
2022-08-27T12:48:51.593Z,33.17
2022-08-27T12:51:32.349Z,39.88
2022-08-27T12:54:19.926Z,38.53
2022-08-27T12:57:25.666Z,38.85
2022-08-27T13:00:11.115Z,47.30
2022-08-27T13:03:03.405Z,41.35
2022-08-27T13:05:50.369Z,35.30
2022-08-27T13:08:48.010Z,41.85
2022-08-27T13:11:22.150Z,41.50
2022-08-27T13:13:50.889Z,31.10
2022-08-27T13:16:20.905Z,33.47
2022-08-27T13:18:52.588Z,34.95
2022-08-27T13:21:28.073Z,36.85
2022-08-27T13:23:59.204Z,51.63
2022-08-27T13:29:03.235Z,38.70
2022-08-27T13:31:32.961Z,45.78
2022-08-27T13:34:01.495Z,50.30
2022-08-27T13:36:35.204Z,36.38
2022-08-27T13:39:05.230Z,36.55
2022-08-27T13:41:35.473Z,30.20
2022-08-27T13:44:12.453Z,43.20
2022-08-27T13:47:23.474Z,47.70
2022-08-27T13:50:00.892Z,45.03
2022-08-27T13:52:33.025Z,51.17
2022-08-27T13:55:06.497Z,49.15
2022-08-27T13:57:48.903Z,40.40
2022-08-27T14:00:26.976Z,44.72
2022-08-27T14:02:55.806Z,41.70
2022-08-27T14:05:23.924Z,42.78
2022-08-27T14:08:00.578Z,37.42
2022-08-27T14:10:36.793Z,50.13
2022-08-27T14:13:08.561Z,49.17
2022-08-27T14:15:42.194Z,46.72
2022-08-27T14:18:48.427Z,37.97
2022-08-27T14:21:18.628Z,52.67
2022-08-27T14:23:46.181Z,38.83
2022-08-27T14:26:15.229Z,46.28
2022-08-27T14:28:45.565Z,51.53
2022-08-27T14:31:14.318Z,36.83
2022-08-27T14:33:41.846Z,41.17
2022-08-27T14:36:09.958Z,45.80
2022-08-27T14:38:42.370Z,43.53
2022-08-27T14:41:09.887Z,54.58
2022-08-27T14:43:38.232Z,46.65
2022-08-27T14:46:10.684Z,50.67
2022-08-27T14:48:43.412Z,45.75
2022-08-27T14:51:25.235Z,46.55
2022-08-27T14:53:53.269Z,50.53
2022-08-27T14:56:22.448Z,55.30
2022-08-27T14:58:50.735Z,36.33
2022-08-27T15:01:20.888Z,37.47
2022-08-27T15:03:50.852Z,39.15
2022-08-27T15:06:22.064Z,55.72
2022-08-27T15:08:52.175Z,45.22
2022-08-27T15:11:25.502Z,52.15
2022-08-27T15:13:54.392Z,56.88
2022-08-27T15:16:29.546Z,42.15
2022-08-27T15:19:00.812Z,56.13
2022-08-27T15:21:30.714Z,50.05
2022-08-27T15:24:03.268Z,49.25
2022-08-27T15:26:33.327Z,64.65
2022-08-27T15:29:06.563Z,47.22
2022-08-27T15:31:34.584Z,44.55
2022-08-27T15:34:02.329Z,49.45
2022-08-27T15:36:29.995Z,44.60
2022-08-27T15:38:57.420Z,46.83
2022-08-27T15:41:28.664Z,55.90
2022-08-27T15:43:58.085Z,45.08
2022-08-27T15:46:26.376Z,45.58
2022-08-27T15:48:54.136Z,53.85
2022-08-27T15:51:27.660Z,53.60
2022-08-27T15:53:56.263Z,53.63
2022-08-27T15:56:24.259Z,56.90
2022-08-27T15:58:52.433Z,48.58
2022-08-27T16:01:32.176Z,46.25
2022-08-27T16:04:02.972Z,39.63
2022-08-27T16:06:31.134Z,57.47
2022-08-27T16:08:58.626Z,49.05
2022-08-27T16:11:26.161Z,43.38
2022-08-27T16:13:55.596Z,49.80
2022-08-27T16:16:30.820Z,59.60
2022-08-27T16:19:01.341Z,53.92
2022-08-27T16:21:29.556Z,52.72
2022-08-27T16:23:57.264Z,42.63
2022-08-27T16:26:24.861Z,77.20
2022-08-27T16:28:52.071Z,48.42
2022-08-27T16:31:19.698Z,43.35
2022-08-27T16:33:47.256Z,49.90
2022-08-27T16:36:14.850Z,52.45
2022-08-27T16:38:42.317Z,50.28
2022-08-27T16:41:09.815Z,50.72
2022-08-27T16:43:38.702Z,41.05
2022-08-27T16:46:06.839Z,66.03
2022-08-27T16:49:01.541Z,56.03
2022-08-27T16:52:28.083Z,59.33
2022-08-27T16:54:57.019Z,69.80
2022-08-27T16:57:24.682Z,49.38
2022-08-27T16:59:51.978Z,54.83
2022-08-27T17:02:30.717Z,63.85
2022-08-27T17:05:12.259Z,62.53
2022-08-27T17:07:48.792Z,56.85
2022-08-27T17:10:18.443Z,43.58
2022-08-27T17:12:48.082Z,48.88
2022-08-27T17:15:18.779Z,55.88
2022-08-27T17:17:46.372Z,44.35
2022-08-27T17:20:15.190Z,59.00
2022-08-27T17:22:43.486Z,64.32
2022-08-27T17:25:11.531Z,66.70
2022-08-27T17:27:38.826Z,56.20
2022-08-27T17:30:07.587Z,45.10
2022-08-27T17:32:40.038Z,47.30
2022-08-27T17:35:08.603Z,44.05
2022-08-27T17:37:36.196Z,61.38
2022-08-27T17:40:05.137Z,49.53
2022-08-27T17:42:32.832Z,52.47
2022-08-27T17:45:00.316Z,58.45
2022-08-27T17:47:27.995Z,57.42
2022-08-27T17:49:55.125Z,58.83
2022-08-27T17:52:23.226Z,41.95
2022-08-27T17:54:54.249Z,56.58
2022-08-27T17:59:54.976Z,44.72
2022-08-27T18:02:27.863Z,40.42
2022-08-27T18:04:55.778Z,45.72
2022-08-27T18:07:23.469Z,48.72
2022-08-27T18:09:51.363Z,54.67
2022-08-27T18:12:24.040Z,47.97
2022-08-27T18:15:03.526Z,46.42
2022-08-27T18:17:32.302Z,45.35
2022-08-27T18:19:59.896Z,62.08
2022-08-27T18:22:27.947Z,57.40
2022-08-27T18:25:02.973Z,47.47
2022-08-27T18:27:34.055Z,52.22
2022-08-27T18:30:02.331Z,48.65
2022-08-27T18:32:31.048Z,62.78
2022-08-27T18:35:03.286Z,51.13
2022-08-27T18:37:31.271Z,44.72
2022-08-27T18:39:58.495Z,52.17
2022-08-27T18:42:25.801Z,47.10
2022-08-27T18:44:53.060Z,43.05
2022-08-27T18:47:20.452Z,40.78
2022-08-27T18:49:47.862Z,64.63
2022-08-27T18:52:15.290Z,68.28
2022-08-27T18:54:43.133Z,43.83
2022-08-27T18:57:10.360Z,50.50
2022-08-27T18:59:37.527Z,49.47
2022-08-27T19:02:22.530Z,39.13
2022-08-27T19:04:52.542Z,32.70
2022-08-27T19:07:21.086Z,51.78
2022-08-27T19:09:50.569Z,46.10
2022-08-27T19:12:17.824Z,42.20
2022-08-27T19:14:47.823Z,45.50
2022-08-27T19:17:36.051Z,49.58
2022-08-27T19:20:04.897Z,42.38
2022-08-27T19:22:32.657Z,38.80
2022-08-27T19:25:00.149Z,39.65
2022-08-27T19:27:30.105Z,49.58
2022-08-27T19:29:57.618Z,44.10
2022-08-27T19:32:24.915Z,66.75
2022-08-27T19:34:53.086Z,46.30
2022-08-27T19:37:26.608Z,45.85
2022-08-27T19:39:54.006Z,37.25
2022-08-27T19:42:21.583Z,47.42
2022-08-27T19:44:51.895Z,51.53
2022-08-27T19:47:25.926Z,36.17
2022-08-27T19:49:53.856Z,55.28
2022-08-27T19:52:21.279Z,44.25
2022-08-27T19:55:10.214Z,46.03
2022-08-27T19:57:36.459Z,36.15
2022-08-27T20:00:05.485Z,47.45
2022-08-27T20:02:37.199Z,52.05
2022-08-27T20:05:21.112Z,52.78
2022-08-27T20:07:53.636Z,45.28
2022-08-27T20:10:31.622Z,60.30
2022-08-27T20:13:04.083Z,44.70
2022-08-27T20:15:31.455Z,36.90
2022-08-27T20:17:59.777Z,35.47
2022-08-27T20:20:28.961Z,48.65
2022-08-27T20:22:59.447Z,52.80
2022-08-27T20:25:26.791Z,37.55
2022-08-27T20:27:55.288Z,50.67
2022-08-27T20:30:25.644Z,38.50
2022-08-27T20:32:53.294Z,30.42
2022-08-27T20:35:22.170Z,36.50
2022-08-27T20:37:50.018Z,50.30
2022-08-27T20:40:21.621Z,38.50
2022-08-27T20:42:50.507Z,43.15
2022-08-27T20:45:18.848Z,50.05
2022-08-27T20:47:48.810Z,48.05
2022-08-27T20:50:17.993Z,43.17
2022-08-27T20:52:45.877Z,43.15
2022-08-27T20:55:14.344Z,62.35
2022-08-27T20:58:04.413Z,51.70
2022-08-27T21:00:35.542Z,29.10
2022-08-27T21:03:03.043Z,40.33
2022-08-27T21:05:34.435Z,47.42
2022-08-27T21:08:04.053Z,46.17
2022-08-27T21:10:31.569Z,58.72
2022-08-27T21:13:02.206Z,45.85
2022-08-27T21:15:31.723Z,43.50
2022-08-27T21:17:59.070Z,34.67
2022-08-27T21:20:26.816Z,32.13
2022-08-27T21:22:56.148Z,42.42
2022-08-27T21:25:25.430Z,39.63
2022-08-27T21:27:53.894Z,47.22
2022-08-27T21:30:21.767Z,41.20
2022-08-27T21:32:49.199Z,48.85
2022-08-27T21:35:16.493Z,49.88
2022-08-27T21:37:44.399Z,37.28
2022-08-27T21:40:12.023Z,39.15
2022-08-27T21:42:39.319Z,47.38
2022-08-27T21:45:06.901Z,43.08
2022-08-27T21:47:34.758Z,49.40
2022-08-27T21:50:02.909Z,31.30
2022-08-27T21:52:31.595Z,35.92
2022-08-27T21:54:58.666Z,41.15
2022-08-27T21:57:26.153Z,43.65
2022-08-27T21:59:53.425Z,35.30
2022-08-27T22:02:39.926Z,49.13
2022-08-27T22:05:09.447Z,56.70
2022-08-27T22:07:37.118Z,25.08
2022-08-27T22:10:06.346Z,57.90
2022-08-27T22:12:33.666Z,55.25
2022-08-27T22:15:00.861Z,53.70
2022-08-27T22:17:28.148Z,35.72
2022-08-27T22:19:55.261Z,45.42
2022-08-27T22:22:22.382Z,56.33
2022-08-27T22:24:49.943Z,45.45
2022-08-27T22:27:19.675Z,42.95
2022-08-27T22:29:46.778Z,47.80
2022-08-27T22:32:14.076Z,43.50
2022-08-27T22:34:41.083Z,47.28
2022-08-27T22:37:08.343Z,54.80
2022-08-27T22:39:35.831Z,46.70
2022-08-27T22:42:03.401Z,47.60
2022-08-27T22:44:30.919Z,49.20
2022-08-27T22:46:58.839Z,28.88
2022-08-27T22:49:26.912Z,30.38
2022-08-27T22:51:54.250Z,44.25
2022-08-27T22:54:21.355Z,36.75
2022-08-27T22:56:48.755Z,58.05
2022-08-27T22:59:16.112Z,51.63
2022-08-27T23:01:43.633Z,43.97
2022-08-27T23:04:11.375Z,40.63
2022-08-27T23:06:38.891Z,44.10
2022-08-27T23:09:06.165Z,53.10
2022-08-27T23:11:35.553Z,46.67
2022-08-27T23:14:03.098Z,38.40
2022-08-27T23:16:31.910Z,39.00
2022-08-27T23:18:59.089Z,40.67
2022-08-27T23:21:26.420Z,39.00
2022-08-27T23:23:53.607Z,42.78
2022-08-27T23:26:39.992Z,49.65
2022-08-27T23:29:07.555Z,37.70
2022-08-27T23:31:34.827Z,49.35
2022-08-27T23:34:02.088Z,41.78
2022-08-27T23:36:31.358Z,52.92
2022-08-27T23:38:58.599Z,40.35
2022-08-27T23:41:26.474Z,37.78
2022-08-27T23:43:54.417Z,43.58
2022-08-27T23:46:21.658Z,47.60
2022-08-27T23:48:48.798Z,40.90
2022-08-27T23:51:16.119Z,34.20
2022-08-27T23:53:43.292Z,43.08
2022-08-27T23:56:11.077Z,39.67
2022-08-27T23:58:38.480Z,42.40
